createdAt,value
2019-05-16T00:04:37.805Z,9.47
2019-05-16T00:10:44.537Z,9.51
2019-05-16T00:16:50.437Z,9.19
2019-05-16T00:22:58.616Z,9.00
2019-05-16T00:29:04.096Z,8.88
2019-05-16T00:35:12.225Z,8.89
2019-05-16T00:41:18.810Z,8.83
2019-05-16T00:47:24.564Z,8.73
2019-05-16T00:53:30.278Z,8.61
2019-05-16T00:59:38.086Z,8.49
2019-05-16T01:05:44.195Z,8.47
2019-05-16T01:11:51.773Z,8.45
2019-05-16T01:17:58.854Z,8.27
2019-05-16T01:24:05.118Z,8.28
2019-05-16T01:30:11.666Z,8.25
2019-05-16T01:36:33.021Z,8.17
2019-05-16T01:42:27.896Z,8.20
2019-05-16T01:48:33.840Z,8.19
2019-05-16T01:54:39.726Z,8.03
2019-05-16T02:00:59.951Z,8.14
2019-05-16T02:06:55.281Z,8.06
2019-05-16T02:13:01.032Z,7.85
2019-05-16T02:19:08.211Z,7.78
2019-05-16T02:25:15.335Z,8.00
2019-05-16T02:31:22.735Z,8.23
2019-05-16T02:37:33.351Z,8.44
2019-05-16T02:43:36.260Z,8.25
2019-05-16T02:49:42.386Z,8.23
2019-05-16T02:55:51.350Z,8.23
2019-05-16T03:01:55.992Z,8.15
2019-05-16T03:08:04.143Z,8.31
2019-05-16T03:14:11.190Z,8.43
2019-05-16T03:20:17.269Z,8.35
2019-05-16T03:26:22.990Z,8.38
2019-05-16T03:32:33.330Z,8.48
2019-05-16T03:38:36.521Z,8.49
2019-05-16T03:44:43.159Z,8.43
2019-05-16T03:50:50.784Z,8.36
2019-05-16T03:56:57.018Z,8.36
2019-05-16T04:03:02.960Z,8.32
2019-05-16T04:09:12.159Z,8.31
2019-05-16T04:15:17.758Z,8.40
2019-05-16T04:21:23.601Z,8.63
2019-05-16T04:27:30.902Z,8.77
2019-05-16T04:33:37.200Z,8.90
2019-05-16T04:39:42.982Z,9.05
2019-05-16T04:45:51.701Z,9.11
2019-05-16T04:51:56.576Z,9.23
2019-05-16T04:58:02.869Z,9.36
2019-05-16T05:04:14.143Z,9.61
2019-05-16T05:10:16.284Z,9.80
2019-05-16T05:16:22.396Z,10.03
2019-05-16T05:22:30.364Z,10.28
2019-05-16T05:28:36.539Z,10.47
2019-05-16T05:34:42.733Z,10.83
2019-05-16T05:40:50.898Z,11.04
2019-05-16T05:46:56.651Z,11.22
2019-05-16T05:53:02.587Z,11.28
2019-05-16T05:59:11.131Z,11.29
2019-05-16T06:05:16.322Z,11.37
2019-05-16T06:11:22.474Z,11.44
2019-05-16T06:17:30.537Z,11.60
2019-05-16T06:23:35.992Z,11.53
2019-05-16T06:29:41.779Z,11.53
2019-05-16T06:35:47.559Z,11.68
2019-05-16T06:41:54.312Z,11.65
2019-05-16T06:48:00.731Z,11.74
2019-05-16T06:54:07.165Z,11.72
2019-05-16T07:00:13.848Z,11.74
2019-05-16T07:06:45.722Z,11.79
2019-05-16T07:12:31.393Z,11.79
2019-05-16T07:18:35.173Z,11.75
2019-05-16T07:24:40.942Z,11.87
2019-05-16T07:30:46.707Z,11.73
2019-05-16T07:36:52.940Z,11.74
2019-05-16T07:43:00.061Z,11.72
2019-05-16T07:49:06.102Z,11.83
2019-05-16T07:55:12.407Z,11.96
2019-05-16T08:01:20.053Z,12.22
2019-05-16T08:07:25.845Z,12.17
2019-05-16T08:13:31.589Z,12.11
2019-05-16T08:19:39.389Z,12.11
2019-05-16T08:25:44.944Z,12.11
2019-05-16T08:31:52.822Z,12.27
2019-05-16T08:38:01.069Z,12.38
2019-05-16T08:44:06.343Z,12.30
2019-05-16T08:50:14.665Z,12.37
2019-05-16T08:56:22.619Z,12.70
2019-05-16T09:02:36.281Z,12.92
2019-05-16T09:08:36.954Z,13.34
2019-05-16T09:14:42.671Z,13.58
2019-05-16T09:20:50.329Z,13.71
2019-05-16T09:26:57.902Z,13.72
2019-05-16T09:33:06.322Z,13.48
2019-05-16T09:39:11.657Z,13.42
2019-05-16T09:45:18.401Z,13.44
2019-05-16T09:51:26.918Z,13.83
2019-05-16T09:57:33.179Z,14.12
2019-05-16T10:03:38.891Z,14.24
2019-05-16T10:09:47.029Z,14.63
2019-05-16T10:15:52.097Z,14.73
2019-05-16T10:22:00.224Z,14.66
2019-05-16T10:28:05.599Z,14.72
2019-05-16T10:34:11.424Z,14.72
2019-05-16T10:40:18.444Z,14.63
2019-05-16T10:46:26.775Z,14.62
2019-05-16T10:52:32.037Z,15.02
2019-05-16T10:58:58.009Z,15.21
2019-05-16T11:04:59.257Z,15.46
2019-05-16T11:10:53.005Z,15.63
2019-05-16T11:16:59.042Z,15.78
2019-05-16T11:23:07.671Z,16.05
2019-05-16T11:29:12.682Z,15.98
2019-05-16T11:35:18.734Z,16.19
2019-05-16T11:41:27.487Z,16.41
2019-05-16T11:47:33.453Z,16.91
2019-05-16T11:53:39.338Z,16.79
2019-05-16T11:59:47.129Z,16.42
2019-05-16T12:05:52.997Z,16.58
2019-05-16T12:12:03.520Z,16.55
2019-05-16T12:18:08.672Z,16.71
2019-05-16T12:24:29.232Z,17.15
2019-05-16T12:30:23.742Z,17.09
2019-05-16T12:36:31.516Z,17.44
2019-05-16T12:42:37.352Z,18.05
2019-05-16T12:48:43.219Z,18.15
2019-05-16T12:54:50.389Z,18.63
2019-05-16T13:00:57.930Z,18.42
2019-05-16T13:07:08.820Z,18.49
2019-05-16T13:13:11.690Z,18.12
2019-05-16T13:19:18.297Z,17.90
2019-05-16T13:25:24.382Z,17.40
2019-05-16T13:31:30.308Z,17.32
2019-05-16T13:37:36.258Z,17.10
2019-05-16T13:43:42.246Z,17.02
2019-05-16T13:49:48.011Z,17.19
2019-05-16T13:55:53.753Z,16.93
2019-05-16T14:01:59.647Z,16.77
2019-05-16T14:08:06.815Z,17.27
2019-05-16T14:14:13.267Z,16.76
2019-05-16T14:20:19.419Z,16.92
2019-05-16T14:26:25.243Z,16.91
2019-05-16T14:32:31.133Z,17.02
2019-05-16T14:38:37.566Z,16.92
2019-05-16T14:44:59.866Z,16.71
2019-05-16T14:50:51.210Z,16.69
2019-05-16T14:57:01.198Z,16.98
2019-05-16T15:03:07.926Z,16.70
2019-05-16T15:09:12.231Z,16.62
2019-05-16T15:15:24.169Z,16.96
2019-05-16T15:21:25.909Z,16.76
2019-05-16T15:27:31.974Z,16.56
2019-05-16T15:33:37.734Z,16.63
2019-05-16T15:39:43.717Z,16.59
2019-05-16T15:45:52.924Z,16.53
2019-05-16T15:51:57.891Z,16.32
2019-05-16T15:58:07.401Z,16.14
2019-05-16T16:04:12.528Z,16.36
2019-05-16T16:10:23.109Z,16.39
2019-05-16T16:16:28.977Z,16.47
2019-05-16T16:22:37.534Z,16.42
2019-05-16T16:28:42.460Z,16.42
2019-05-16T16:34:49.159Z,16.21
2019-05-16T16:40:57.453Z,16.21
2019-05-16T16:47:10.038Z,16.16
2019-05-16T16:53:17.637Z,16.06
2019-05-16T16:59:27.831Z,15.82
2019-05-16T17:05:32.311Z,15.81
2019-05-16T17:11:38.139Z,15.52
2019-05-16T17:17:43.902Z,15.53
2019-05-16T17:23:49.647Z,15.51
2019-05-16T17:29:56.853Z,15.67
2019-05-16T17:36:03.056Z,15.60
2019-05-16T17:42:08.981Z,15.57
2019-05-16T17:48:17.304Z,15.22
2019-05-16T17:54:22.496Z,15.11
2019-05-16T18:00:29.376Z,15.01
2019-05-16T18:06:37.080Z,15.03
2019-05-16T18:12:43.231Z,14.98
2019-05-16T18:18:49.697Z,14.85
2019-05-16T18:24:57.723Z,14.81
2019-05-16T18:31:03.827Z,14.69
2019-05-16T18:37:09.746Z,14.49
2019-05-16T18:43:16.622Z,14.53
2019-05-16T18:49:24.114Z,14.45
2019-05-16T18:55:30.151Z,14.31
2019-05-16T19:01:37.559Z,14.16
2019-05-16T19:07:43.571Z,13.96
2019-05-16T19:13:49.332Z,13.70
2019-05-16T19:19:56.989Z,13.41
2019-05-16T19:26:02.901Z,13.20
2019-05-16T19:32:08.687Z,13.00
2019-05-16T19:38:14.463Z,12.97
2019-05-16T19:44:20.412Z,12.85
2019-05-16T19:50:26.797Z,12.82
2019-05-16T19:56:32.673Z,12.78
2019-05-16T20:02:38.648Z,12.75
2019-05-16T20:08:44.747Z,12.60
2019-05-16T20:14:50.633Z,12.46
2019-05-16T20:20:56.949Z,12.43
2019-05-16T20:27:05.128Z,12.38
2019-05-16T20:33:10.902Z,12.35
2019-05-16T20:39:17.385Z,12.43
2019-05-16T20:45:23.356Z,12.38
2019-05-16T20:51:29.185Z,12.28
2019-05-16T20:57:37.669Z,12.28
2019-05-16T21:03:43.732Z,12.29
2019-05-16T21:09:50.029Z,12.18
2019-05-16T21:15:57.717Z,12.18
2019-05-16T21:22:03.895Z,12.14
2019-05-16T21:28:09.780Z,12.13
2019-05-16T21:34:16.133Z,12.00
2019-05-16T21:40:26.311Z,11.90
2019-05-16T21:46:31.457Z,11.96
2019-05-16T21:52:37.266Z,11.98
2019-05-16T21:58:43.004Z,11.88
2019-05-16T22:04:48.807Z,11.92
2019-05-16T22:10:57.121Z,11.87
2019-05-16T22:17:02.248Z,11.82
2019-05-16T22:23:08.462Z,11.75
2019-05-16T22:29:14.437Z,11.79
2019-05-16T22:35:21.859Z,11.80
2019-05-16T22:41:28.305Z,11.76
2019-05-16T22:47:34.218Z,11.75
2019-05-16T22:53:40.842Z,11.78
2019-05-16T22:59:47.077Z,11.72
2019-05-16T23:05:53.003Z,11.65
2019-05-16T23:11:58.820Z,11.61
2019-05-16T23:18:06.753Z,11.66
2019-05-16T23:24:12.298Z,11.55
2019-05-16T23:30:18.420Z,11.60
2019-05-16T23:36:26.470Z,11.60
2019-05-16T23:42:32.497Z,11.66
2019-05-16T23:48:38.541Z,11.62
2019-05-16T23:54:44.556Z,11.51
